Weather observations for the past three days for
Jacksonville, Cherokee County Airport
Metric (Imperial)
Date Time (cdt) Wind (kph) Vis. (km) Weather Sky Cond. Temperature (ºC) Relative Humidity Wind Chill (°C) Heat Index (°C) Pressure Precipitation (cm)
Air Dwpt 6 hour altimeter (cm) sea level (mb) 1 hr 3 hr 6 hr
Max. Min.
03 15:35 SW 9 11.27 Partly Cloudy SCT070 25.3 9.2 36% 26 76.38 0.0
03 15:15 W 9 12.87 Partly Cloudy SCT070 25.2 8 34% 26 76.4 0.0
03 14:55 Vrbl 6 11.27 A Few Clouds FEW070 25 8.1 34% 26 76.43 0.0
03 14:35 SW 13 11.27 Partly Cloudy SCT070 23.9 8.5 38% 25 76.45 0.0
03 13:55 W 15 12.87 A Few Clouds FEW340 25 9.3 37% 26 76.5 0.0
03 13:35 W 15 12.87 A Few Clouds FEW300 24.7 8.8 36% 25 76.53 0.0
03 13:15 W 9 12.87 A Few Clouds FEW330 24.5 9.2 38% 25 76.56 0.0
03 12:55 W 15 12.87 Fair CLR 24.1 8.7 24.3 14.3 38% 25 76.58 0.0
03 12:35 Vrbl 11 11.27 A Few Clouds FEW320 24 8.6 38% 25 76.61 0.0
03 12:15 W 15 12.87 A Few Clouds FEW320 23.9 8.7 38% 25 76.61 0.0
03 11:55 W 13 12.87 Fair CLR 23.3 9.1 41% 76.63 0.0
03 11:35 SW 15 12.87 Fair CLR 23.1 9.4 42% 76.63 0.0
03 11:15 W 15 12.87 Fair CLR 22.7 10.4 46% 76.63 0.0
03 10:55 SW 17 12.87 Fair CLR 22.1 10.5 48% 76.63 0.0
03 10:35 Vrbl 11 12.87 Fair CLR 21.8 10.5 49% 76.66 0.0
03 10:15 Vrbl 9 12.87 Fair CLR 21.4 11.6 54% 76.63 0.0
03 09:55 SW 15 12.87 Fair CLR 20.4 11.4 56% 76.63 0.0
03 09:35 SW 11 12.87 Fair CLR 19.7 11.5 59% 76.63 0.0
03 09:15 S 11 14.48 Fair CLR 18.7 12.1 66% 76.63 0.0
03 08:55 SW 11 14.48 A Few Clouds FEW080 17.7 11.4 67% 76.63 0.0
03 08:35 SW 6 14.48 Fair CLR 17.3 11.2 68% 76.63 0.0
03 08:15 SW 7 14.48 A Few Clouds FEW075 16.2 11.2 72% 76.61 0.0
03 07:55 S 7 12.87 Mostly Cloudy BKN075 15.1 10.9 76% 76.58 0.0
03 07:35 S 6 14.48 Mostly Cloudy BKN075 15.2 10.4 73% 76.58 0.0
03 07:15 S 7 14.48 Partly Cloudy SCT075 14.4 10.2 76% 76.58 0.0
03 06:55 S 7 14.48 Fair CLR 14 9.9 16.5 13.8 77% 76.56 0.0
03 06:35 SW 7 16.09 Fair CLR 13.9 10 78% 76.53 0.0
03 06:15 S 6 16.09 Fair CLR 14.4 9.7 74% 76.5 0.0
03 05:55 SW 7 16.09 Fair CLR 14.9 9.4 70% 76.5 0.0
03 05:35 SW 7 16.09 Fair CLR 14.9 9.1 68% 76.48 0.0
03 05:15 SW 7 16.09 Fair CLR 14.7 9.4 71% 76.48 0.0
03 04:55 SW 6 16.09 Fair CLR 14.7 9.4 71% 76.48 0.0
03 04:35 S 7 16.09 Fair CLR 14.6 9.4 71% 76.48 0.0
03 04:15 SW 6 16.09 Fair CLR 14.7 9.3 70% 76.48 0.0
03 03:55 S 7 16.09 Fair CLR 14.9 9.3 69% 76.48 0.0
03 03:35 S 7 16.09 Fair CLR 14.7 9.3 70% 76.45 0.0
03 03:15 S 7 16.09 Fair CLR 14.7 9.3 70% 76.48 0.0
03 02:55 SW 7 16.09 Fair CLR 15.4 9.2 67% 76.48 0.0
03 02:35 SW 9 16.09 Fair CLR 15.4 9.3 67% 76.48 0.0
03 02:15 S 9 16.09 Fair CLR 15.6 8.9 65% 76.48 0.0
03 01:55 S 7 16.09 Fair CLR 15.5 8.6 64% 76.5 0.0
03 01:35 S 7 16.09 Fair CLR 15.8 8.1 60% 76.5 0.0
03 01:15 SW 9 16.09 Fair CLR 16.5 7.6 56% 76.5 0.0
03 00:55 S 6 16.09 Fair CLR 16.2 7.5 21.5 15 57% 76.5 0.0
03 00:35 S 6 16.09 Fair CLR 15.9 7.8 59% 76.48 0.0
03 00:15 S 6 16.09 Fair CLR 15.9 8.4 61% 76.48 0.0
02 23:55 Calm 16.09 Fair CLR 15.6 7.3 58% 76.48 0.0
02 23:35 Calm 16.09 Fair CLR 15.4 7.6 60% 76.48 0.0
02 23:15 Calm 16.09 Fair CLR 16.7 7.5 55% 76.48 0.0
02 22:55 Calm 16.09 Fair CLR 15.7 8.4 62% 76.5 0.0
02 22:35 Calm 16.09 Fair CLR 15.5 8.9 65% 76.48 0.0
02 22:15 Calm 16.09 Fair CLR 17 8.6 58% 76.48 0.0
02 21:55 Calm 16.09 Fair CLR 16.3 9.5 64% 76.45 0.0
02 21:35 Calm 14.48 Fair CLR 16.3 9.5 64% 76.45 0.0
02 21:15 Calm 16.09 Fair CLR 16.8 9.8 64% 76.43 0.0
02 20:55 Calm 14.48 Fair CLR 17.9 9.9 60% 76.43 0.0
02 20:35 Calm 16.09 Fair CLR 18.2 10 59% 76.4 0.0
02 20:15 Calm 12.87 Fair CLR 18.3 10.6 61% 76.4 0.0
02 19:55 Calm 11.27 Fair CLR 19.5 10.3 55% 76.35 0.0
02 19:35 Calm 12.87 Fair CLR 20.7 8.4 45% 76.35 0.0
02 19:15 NE 6 9.66 Fair with Haze CLR 21.2 9.6 48% 76.35 0.0
02 18:55 Calm 12.87 Fair CLR 21.7 8.3 23.5 20.1 42% 76.35 0.0
02 18:35 NE 9 12.87 Fair CLR 22 8 41% 76.35 0.0
02 18:15 NE 7 12.87 Fair CLR 22.2 7.4 39% 76.35 0.0
02 17:55 N 9 12.87 Fair CLR 22.6 7.5 38% 76.35 0.0
02 17:35 NE 9 12.87 A Few Clouds FEW070 22.8 7.8 38% 76.35 0.0
02 17:15 NE 15 12.87 A Few Clouds FEW070 22.8 7.4 37% 76.35 0.0
02 16:55 N 11 12.87 Fair CLR 22.6 6.8 36% 76.35 0.0
02 16:35 Vrbl 6 12.87 A Few Clouds FEW070 22.8 7.5 37% 76.35 0.0
02 16:15 N 13 12.87 Partly Cloudy SCT070 23.3 8.3 38% 76.38 0.0
02 15:55 Vrbl 11 12.87 Partly Cloudy SCT070 22.7 7.8 38% 76.38 0.0
02 15:35 NE 15 12.87 Mostly Cloudy BKN070 22.7 8.6 41% 76.4 0.0
02 15:15 Vrbl 9 11.27 Partly Cloudy FEW060 SCT080 SCT350 23.1 8.3 39% 76.43 0.0
02 14:55 N 13 12.87 A Few Clouds FEW060 22.4 8.4 41% 76.43 0.0
02 14:35 Vrbl 9 12.87 Partly Cloudy SCT060 22.5 9.7 44% 76.43 0.0
02 14:15 N 9 12.87 Mostly Cloudy BKN060 21.8 9.8 47% 76.45 0.0
02 13:55 N 13 12.87 Fair CLR 21.7 10 47% 76.48 0.0
02 13:35 N 9 12.87 A Few Clouds FEW270 21.7 10.2 48% 76.48 0.0
02 13:15 Vrbl 6 12.87 Partly Cloudy SCT046 21.2 10.6 51% 76.5 0.0
02 12:55 NW 9 12.87 Partly Cloudy FEW044 SCT055 SCT310 20.1 10.9 21.1 11.5 56% 76.56 0.0
02 12:35 Vrbl 9 12.87 A Few Clouds FEW043 20.6 11.4 56% 76.56 0.0
02 12:15 N 11 12.87 Partly Cloudy FEW042 SCT380 20.4 12 59% 76.56 0.0
02 11:55 Vrbl 6 12.87 Fair CLR 19.4 12.3 64% 76.56 0.0
02 11:35 Vrbl 6 12.87 Fair CLR 19.5 12.3 63% 76.56 0.0
02 11:15 Vrbl 6 12.87 Fair CLR 19.1 12.4 65% 76.56 0.0
02 10:55 NW 7 12.87 Fair CLR 18.5 11.9 66% 76.56 0.0
02 10:35 Vrbl 7 12.87 Fair CLR 18.4 12 66% 76.56 0.0
02 10:15 Calm 12.87 Fair CLR 17.5 11.8 69% 76.53 0.0
02 09:55 Vrbl 6 14.48 Fair CLR 17.1 12.7 75% 76.53 0.0
02 09:35 Vrbl 7 12.87 Fair CLR 16.7 12.9 78% 76.53 0.0
02 09:15 N 7 14.48 Fair CLR 16.1 13 82% 76.5 0.0
02 08:55 Vrbl 7 14.48 Fair CLR 15.1 12.8 86% 76.5 0.0
02 08:35 NW 7 16.09 Fair CLR 14.4 12.4 88% 76.48 0.0
02 08:15 NW 6 14.48 Fair CLR 13.6 12 90% 76.45 0.0
02 07:55 NW 7 16.09 Fair CLR 13.1 11.3 89% 76.45 0.0
02 07:35 NW 6 12.87 Fair CLR 12.6 11.3 92% 76.43 0.0
02 07:15 NW 7 16.09 Fair CLR 11.9 10.9 94% 76.43 0.0
02 06:55 NW 7 16.09 Fair CLR 11.3 10.4 11.8 11.1 94% 76.38 0.0
02 06:35 Vrbl 6 16.09 Fair CLR 11.2 10.4 95% 76.35 0.0
02 06:15 NW 6 16.09 Fair CLR 11.2 10.6 96% 76.35 0.0
02 05:55 NW 7 16.09 Fair CLR 11.2 10.5 96% 76.33 0.0
02 05:35 NW 6 16.09 Fair CLR 11.2 10.6 96% 76.3 0.0
02 05:15 NW 6 16.09 Fair CLR 11.2 10.9 98% 76.3 0.0
02 04:55 NW 6 16.09 Fair CLR 11.3 11.2 99% 76.28 0.0
02 04:35 NW 6 16.09 Fair CLR 11.4 11.2 99% 76.28 0.0
02 04:15 N 6 16.09 Fair CLR 11.5 11.5 100% 76.28 0.0
02 03:55 NW 7 16.09 Partly Cloudy SCT110 11.6 11.6 100% 76.28 0.0
02 03:35 N 6 16.09 Mostly Cloudy BKN110 11.7 11.7 100% 76.25 0.0
02 03:15 Calm 16.09 Overcast OVC110 11.7 11.7 100% 76.28 0.0
02 02:55 N 6 16.09 Overcast OVC110 11.7 11.7 100% 76.25 0.0
02 02:35 N 6 16.09 Overcast OVC110 11.7 11.7 100% 76.25 0.0
02 02:15 NW 6 16.09 Overcast OVC110 11.7 11.7 100% 76.28 0.0
02 01:55 N 6 16.09 Overcast OVC110 11.7 11.7 100% 76.28 0.0
02 01:35 NW 6 16.09 Overcast OVC095 11.7 11.7 100% 76.28 0.0
02 01:15 NW 6 16.09 Overcast OVC100 11.7 11.7 100% 76.28 0.0
02 00:55 NW 7 16.09 Overcast BKN090 OVC110 11.7 11.7 12.2 11.6 100% 76.28 0.0 0.13
02 00:35 N 6 16.09 Overcast OVC085 11.8 11.8 100% 76.25 0.0
02 00:15 N 7 16.09 Overcast OVC080 11.8 11.8 100% 76.25 0.0
01 23:55 N 6 16.09 Overcast OVC090 11.7 11.7 100% 76.25 0.0
01 23:35 N 9 16.09 Overcast BKN090 OVC130 11.9 11.8 99% 76.25 0.0
01 23:15 NE 9 16.09 Overcast BKN075 OVC085 12.1 11.6 97% 76.25 0.0
01 22:55 NE 9 16.09 Overcast OVC080 12.2 11.7 97% 76.23 0.0
01 22:35 E 11 16.09 Overcast OVC080 12.1 12 99% 76.2 0.0
01 22:15 NE 9 16.09 Overcast SCT090 OVC100 12.1 12.1 100% 76.23 0.0
01 21:55 NE 13 16.09 Overcast OVC100 12 12 100% 76.2 0.0 0.05 0.13
01 21:35 NE 9 16.09 Mostly Cloudy FEW065 BKN110 12 12 100% 76.23 0.0 0.03
01 21:15 NE 11 9.66 Fog/Mist BKN060 12.1 12.1 100% 76.23 0.0 0.03
01 20:55 Vrbl 6 11.27 Unknown Precip OVC060 12 12 100% 76.23 0.0 0.05
01 20:35 NE 7 11.27 Unknown Precip BKN060 BKN090 12 12 100% 76.17 0.0 0.03
01 20:15 N 6 11.27 Partly Cloudy SCT055 11.9 11.9 100% 76.17 0.0
01 19:55 Calm 8.05 Unknown Precip Fog/Mist OVC050 11.9 11.9 100% 76.17 0.0 0.03
01 19:35 Calm 14.48 Overcast OVC050 11.8 11.8 100% 76.15 0.0
01 19:15 N 9 12.87 Mostly Cloudy SCT055 BKN090 11.6 11.6 100% 76.1 0.0
01 18:55 NE 13 16.09 Overcast SCT044 BKN055 OVC085 11.5 11.5 11.9 11 100% 76.02 0.0 0.64
01 18:35 NE 11 12.87 Overcast BKN045 OVC085 11.6 11.6 100% 76.1 0.0
01 18:15 NE 11 16.09 Overcast BKN042 OVC050 11.7 11.7 100% 76.07 0.0
01 17:55 E 13 9.66 Unknown Precip Fog/Mist OVC041 11.7 11.6 99% 76.07 0.0 0.05
01 17:35 NE 13 G 28 11.27 Unknown Precip BKN041 BKN060 OVC090 11.7 11.4 98% 76.02 0.0 0.03
01 17:15 NE 19 11.27 Unknown Precip FEW035 SCT085 11.6 11.6 100% 76 0.0 0.03
01 16:55 NE 15 12.87 Unknown Precip BKN005 BKN028 OVC110 11.6 11.6 100% 76 0.0 0.08
01 16:35 NE 15 G 28 16.09 Overcast OVC003 11.7 11.7 100% 75.95 0.0 0.08
01 16:15 NE 20 9.66 Light Rain Fog/Mist BKN003 BKN012 BKN019 OVC032 11.8 11.8 100% 75.92 0.0 0.08
01 15:55 NE 17 4.83 Rain Fog/Mist BKN012 OVC017 11.6 11.6 100% 76.05 0.0 0.38 0.51
01 15:35 NE 13 4.02 Rain Fog/Mist BKN010 OVC017 11.7 11.7 100% 76.1 0.0 0.28
01 15:15 NE 9 4.83 Light Rain Fog/Mist SCT011 BKN018 OVC034 11.8 11.8 100% 76.07 0.0 0.1
01 14:55 NE 20 12.87 Unknown Precip BKN009 OVC015 11.7 11.7 100% 75.97 0.0 0.03
01 14:35 NE 22 12.87 Unknown Precip BKN006 OVC010 11.5 11.5 100% 75.87 0.0
01 14:15 NE 20 G 37 14.48 Overcast BKN006 OVC012 11.6 11.6 100% 75.9 0.0
01 13:55 NE 26 G 39 11.27 Overcast BKN006 OVC012 11.3 11.3 100% 75.9 0.0 0.1
01 13:35 NE 22 9.66 Fog/Mist BKN007 OVC013 11.3 11.3 100% 75.95 0.0 0.1
01 12:55 NE 22 G 31 9.66 Light Rain Fog/Mist BKN003 OVC011 11.6 11.6 12.8 11.6 100% 76.05 0.0 0.3 1.98
01 12:35 NE 19 G 35 11.27 Light Rain BKN003 OVC010 11.7 11.7 100% 76.05 0.0 0.25
01 12:15 NE 22 6.44 Rain Fog/Mist OVC003 11.9 11.9 100% 76.1 0.0 0.18
01 11:55 NE 19 4.02 Rain Fog/Mist OVC003 12.1 12.1 100% 76.15 0.0 0.48
01 11:35 NE 20 4.83 Rain Fog/Mist BKN001 OVC005 12.1 12.1 100% 76.15 0.0 0.33
01 11:15 NE 19 4.83 Rain Fog/Mist BKN002 OVC009 12 12 100% 76.15 0.0 0.18
01 10:55 NE 17 6.44 Rain Fog/Mist BKN002 OVC007 11.9 11.9 100% 76.2 0.0 0.38
01 10:35 NE 17 6.44 Light Rain Fog/Mist BKN002 OVC009 12 12 100% 76.17 0.0 0.3
01 10:15 NE 17 4.83 Rain Fog/Mist SCT003 OVC011 11.9 11.9 100% 76.17 0.0 0.2
01 09:55 NE 13 4.02 Rain Fog/Mist BKN004 OVC008 11.9 11.9 100% 76.17 0.0 0.3 0.81
01 09:35 NE 15 6.44 Rain Fog/Mist OVC003 11.9 11.9 100% 76.15 0.0 0.15
01 09:15 NE 19 8.05 Light Rain Fog/Mist OVC002 11.9 11.9 100% 76.07 0.0 0.08
01 08:55 NE 15 4.83 Rain Fog/Mist SCT001 SCT007 OVC031 12.2 12.2 100% 76.07 0.0 0.36
01 08:35 NE 15 4.02 Rain Fog/Mist FEW006 OVC060 12.1 12.1 100% 76.1 0.0 0.23
01 08:15 NE 15 6.44 Light Rain Fog/Mist FEW021 OVC055 12.3 12.3 100% 76.1 0.0 0.13
01 07:55 NE 15 8.05 Light Rain Fog/Mist OVC021 12.5 12.5 100% 76.1 0.0 0.15
01 07:35 NE 11 11.27 Overcast OVC021 12.6 12.6 100% 76.1 0.0 0.1
01 07:15 NE 11 9.66 Unknown Precip Fog/Mist OVC021 12.6 12.6 100% 76.07 0.0 0.05
01 06:55 NE 13 11.27 Unknown Precip OVC022 12.9 12.9 14.4 12.9 100% 76.05 0.0
01 06:35 NE 11 14.48 Unknown Precip OVC022 12.9 12.9 100% 76.05 0.0
01 06:15 NE 15 16.09 Unknown Precip OVC022 13.1 13.1 100% 76.02 0.0
01 05:55 NE 13 16.09 Overcast OVC020 13.3 13.3 100% 76 0.0
01 05:35 NE 15 16.09 Overcast BKN019 BKN024 OVC033 13.4 13.4 100% 76 0.0
01 05:15 NE 15 16.09 Unknown Precip FEW017 BKN024 OVC033 13.5 13.5 100% 76 0.0
01 04:55 NE 11 16.09 Overcast BKN017 OVC023 13.6 13.6 100% 76.02 0.0
01 04:35 NE 11 16.09 Overcast OVC021 13.6 13.6 100% 76.02 0.0
01 04:15 NE 13 16.09 Overcast OVC020 13.6 13.6 100% 76.02 0.0
01 03:55 NE 11 16.09 Overcast OVC020 13.7 13.7 100% 76.02 0.0
01 03:35 N 9 16.09 Overcast OVC022 13.7 13.7 100% 76.05 0.0
01 03:15 NE 11 16.09 Overcast OVC022 13.7 13.7 100% 75.97 0.0
01 02:55 NE 13 16.09 Overcast OVC021 13.8 13.8 100% 75.95 0.0
01 02:35 NE 15 16.09 Overcast FEW006 OVC020 13.8 13.8 100% 75.97 0.0
01 02:15 NE 11 16.09 Overcast FEW007 OVC019 14 14 100% 75.97 0.0
01 01:55 NE 19 16.09 Overcast FEW004 OVC016 14.1 14.1 100% 76 0.0
01 01:35 NE 19 16.09 Overcast SCT003 BKN008 OVC014 14.2 14.2 100% 76.02 0.0
01 01:15 NE 9 14.48 Overcast BKN002 OVC009 14.3 14.3 100% 76.05 0.0
01 00:55 NE 11 12.87 Overcast FEW003 OVC011 14.3 14.3 15.6 14.3 100% 76.02 0.0 0.05 0.13
01 00:35 NE 11 12.87 Unknown Precip BKN011 OVC019 14.3 14.3 100% 76.07 0.0 0.03
01 00:15 NE 6 9.66 Unknown Precip Fog/Mist FEW012 OVC019 14.4 14.4 100% 76.17 0.0
30 23:55 NE 13 14.48 Overcast BKN009 OVC020 14.4 14.4 100% 76.07 0.0 0.05
30 23:35 NE 9 12.87 Unknown Precip BKN005 BKN010 OVC018 14.6 14.6 100% 76.07 0.0 0.03
30 23:15 NE 9 12.87 Unknown Precip OVC004 14.6 14.6 100% 76.07 0.0 0.03
30 22:55 NE 15 14.48 Overcast OVC002 14.6 14.6 100% 76.02 0.0
30 22:35 NE 17 14.48 Overcast BKN002 OVC007 14.7 14.7 100% 76 0.0
30 22:15 NE 19 12.87 Overcast SCT004 OVC013 14.6 14.6 100% 76 0.0
30 21:55 NE 15 14.48 Unknown Precip FEW004 OVC015 14.6 14.6 100% 76 0.0 0.03
30 21:35 NE 13 14.48 Unknown Precip SCT005 OVC016 14.6 14.6 100% 76.02 0.0
30 21:15 NE 15 16.09 Overcast SCT005 OVC013 14.5 14.5 100% 75.97 0.0
30 20:55 NE 19 16.09 Overcast SCT003 OVC009 14.6 14.6 100% 75.95 0.0
30 20:35 NE 17 G 30 16.09 Overcast BKN002 OVC007 14.8 14.8 100% 75.97 0.0
30 20:15 NE 13 16.09 Overcast OVC003 15.1 15.1 100% 75.97 0.0
30 19:55 E 7 11.27 Unknown Precip OVC005 15.5 15.5 100% 75.97 0.0 0.03
30 19:35 Vrbl 11 11.27 Unknown Precip OVC005 15.5 15.5 100% 76 0.0
30 19:15 NE 11 12.87 Unknown Precip OVC004 15.5 15.5 100% 75.92 0.0
30 18:55 NE 13 16.09 Overcast OVC003 15.6 15.6 16.5 15.6 100% 75.79 0.0 0.03 0.18
30 18:35 NE 15 16.09 Overcast OVC003 15.7 15.7 100% 75.77 0.0 0.03
30 18:15 E 15 14.48 Overcast BKN003 OVC008 15.9 15.9 100% 75.74 0.0 0.03
30 17:55 NE 13 12.87 Unknown Precip OVC005 16 16 100% 75.79 0.0
30 17:35 NE 19 12.87 Unknown Precip OVC005 16 16 100% 75.79 0.0
30 17:15 E 20 G 28 16.09 Overcast OVC005 15.9 15.9 100% 75.74 0.0
30 16:55 E 13 9.66 Unknown Precip Fog/Mist BKN005 OVC050 16 16 100% 75.79 0.0 0.05
30 16:35 E 15 G 26 11.27 Unknown Precip BKN005 OVC070 15.9 15.9 100% 75.79 0.0 0.03
30 16:15 E 15 9.66 Unknown Precip Fog/Mist BKN005 OVC011 16.2 16.2 100% 75.87 0.0
30 15:55 E 13 9.66 Unknown Precip Fog/Mist BKN006 OVC012 16.4 16.4 100% 75.92 0.0 0.03 0.1
Date Time (cdt) Wind (kph) Vis. (km) Weather Sky Cond. Air Dwpt Max. Min. Relative Humidity Wind Chill (°C) Heat Index (°C) altimeter (cm) sea level (mb) 1 hr 3 hr 6 hr
6 hour
Temperature (ºC) Pressure Precipitation (cm)